This is the latest recevied weather packets stored in our database for station/object OK1JIL-13. If no packets are shown the sender has not sent any weather packets the latest 10 day(s).
| Time | Temp. | Humidity | Pressure | Rain* | Wind** | Luminosity | Snow |
|---|---|---|---|---|---|---|---|
| 1776983573 | 9.44° C | 55% | 1018.9 hPa | - | - | - | - |
| 1776982972 | 9.44° C | 54% | 1018.9 hPa | - | - | - | - |
| 1776982372 | 8.89° C | 53% | 1018.9 hPa | - | - | - | - |
| 1776981772 | 8.89° C | 54% | 1019 hPa | - | - | - | - |
| 1776981172 | 9.44° C | 52% | 1019.1 hPa | - | - | - | - |
| 1776980572 | 9.44° C | 51% | 1019.2 hPa | - | - | - | - |
| 1776979972 | 8.89° C | 53% | 1019 hPa | - | - | - | - |
| 1776979372 | 9.44° C | 52% | 1019.2 hPa | - | - | - | - |
| 1776978773 | 10° C | 49% | 1019.1 hPa | - | - | - | - |
| 1776978172 | 8.89° C | 52% | 1019 hPa | - | - | - | - |
| 1776977572 | 9.44° C | 50% | 1019.1 hPa | - | - | - | - |
| 1776976975 | 10° C | 49% | 1019 hPa | - | - | - | - |
| 1776976370 | 8.89° C | 51% | 1019 hPa | - | - | - | - |
| 1776975770 | 9.44° C | 50% | 1019.1 hPa | - | - | - | - |
| 1776975170 | 8.89° C | 51% | 1018.9 hPa | - | - | - | - |
| 1776974570 | 9.44° C | 50% | 1018.9 hPa | - | - | - | - |
| 1776973972 | 8.89° C | 50% | 1018.9 hPa | - | - | - | - |
| 1776973370 | 9.44° C | 49% | 1018.9 hPa | - | - | - | - |
| 1776972170 | 8.89° C | 51% | 1019 hPa | - | - | - | - |
| 1776971572 | 10° C | 48% | 1019.1 hPa | - | - | - | - |
| 1776970970 | 9.44° C | 48% | 1019 hPa | - | - | - | - |
| 1776970370 | 10° C | 47% | 1018.9 hPa | - | - | - | - |
| 1776969770 | 10° C | 47% | 1018.9 hPa | - | - | - | - |
| 1776969170 | 10° C | 47% | 1018.8 hPa | - | - | - | - |
| 1776968570 | 10.56° C | 46% | 1018.7 hPa | - | - | - | - |
* Rain since midnight (hover to see other rain measurements)
** Current wind speed in m/s (hover to see current wind gust speed)